Data for 03/26/2010

Time Sea-Level Adjusted Pressure Absolute Pressure Temperature Relative Humidity Dew Point   
(mb) (inHg) (mb) (inHg) (C) (F) (%) (C) (F)
00:05 1008 29.77 838 24.75 0.9 33.5 94 0 32.1
00:10 1008 29.77 838 24.75 0.7 33.2 95 -0.1 31.8
00:15 1009 29.8 838 24.75 0.5 32.9 96 -0.1 31.8
00:20 1009 29.8 838 24.75 0.5 33 96 -0 31.9
00:25 1009 29.8 838 24.75 0.6 33.2 96 0.1 32.1
00:30 1009 29.8 838 24.75 0.5 33 96 -0 32
00:35 1009 29.8 838 24.75 0.5 32.8 96 -0.1 31.9
00:40 1009 29.8 838 24.75 0.5 32.9 97 0 32
00:45 1009 29.8 838 24.75 0.4 32.7 97 -0.1 31.8
00:50 1009 29.8 838 24.75 0.3 32.6 98 0.1 32.1
00:55 1009 29.8 838 24.75 0.5 32.9 97 0.1 32.2
01:00 1009 29.8 838 24.75 0.3 32.6 97 -0.1 31.9
01:05 1009 29.8 838 24.75 0.3 32.5 98 -0 32
01:10 1009 29.8 838 24.75 0.3 32.6 98 0.1 32.1
01:15 1009 29.8 838 24.75 0.4 32.7 98 0.1 32.2
01:20 1009 29.8 838 24.75 0.4 32.7 98 0.1 32.2
01:25 1009 29.8 838 24.75 0.3 32.6 98 0 32.1
01:30 1009 29.8 838 24.75 0.3 32.5 98 -0 32
01:35 1009 29.8 838 24.75 0.3 32.6 98 0.1 32.1
01:40 1009 29.8 838 24.75 0.3 32.6 98 0 32.1
01:45 1009 29.8 838 24.75 0.3 32.5 98 0.1 32.1
01:50 1009 29.8 838 24.75 0.3 32.5 98 0 32.1
01:55 1009 29.8 838 24.75 0.2 32.4 98 -0 32
02:00 1009 29.8 838 24.75 0.2 32.4 99 0 32.1
02:05 1009 29.8 838 24.75 0.3 32.6 98 0.1 32.2
02:10 1009 29.8 838 24.75 0.4 32.8 96 -0.1 31.9
02:15 1009 29.8 838 24.75 0.4 32.7 96 -0.1 31.7
02:20 1009 29.8 838 24.75 0.2 32.4 96 -0.3 31.5
02:25 1009 29.8 839 24.78 0.2 32.4 97 -0.2 31.6
02:30 1009 29.8 839 24.78 0.3 32.5 97 -0.2 31.7
02:35 1009 29.8 839 24.78 0.3 32.5 97 -0.1 31.8
02:40 1009 29.8 839 24.78 0.4 32.6 97 -0 31.9
02:45 1010 29.83 839 24.78 0.4 32.8 96 -0.1 31.8
02:50 1010 29.83 839 24.78 0.5 32.9 96 -0.1 31.8
02:55 1010 29.83 839 24.78 0.5 32.8 96 -0.2 31.7
03:00 1010 29.83 839 24.78 0.4 32.8 95 -0.2 31.6
03:05 1010 29.83 839 24.78 0.4 32.8 95 -0.3 31.5
03:10 1010 29.83 839 24.78 0.4 32.7 95 -0.3 31.5
03:15 1010 29.83 839 24.78 0.4 32.7 96 -0.2 31.6
03:20 1010 29.83 839 24.78 0.4 32.7 95 -0.2 31.6
03:25 1010 29.83 839 24.78 0.5 32.8 95 -0.2 31.6
03:30 1010 29.83 839 24.78 0.4 32.8 95 -0.3 31.5
03:35 1010 29.83 839 24.78 0.4 32.7 95 -0.3 31.4
03:40 1010 29.83 839 24.78 0.4 32.6 95 -0.4 31.3
03:45 1010 29.83 839 24.78 0.3 32.6 95 -0.4 31.2
03:50 1010 29.83 839 24.78 0.3 32.6 95 -0.4 31.2
03:55 1010 29.83 839 24.78 0.3 32.5 93 -0.7 30.8
04:00 1010 29.83 839 24.78 0.2 32.3 94 -0.6 30.8
04:05 1010 29.83 839 24.78 0.1 32.2 94 -0.7 30.8
04:10 1010 29.83 839 24.78 0.1 32.1 95 -0.7 30.7
04:15 1010 29.83 839 24.78 -0 31.9 95 -0.8 30.5
04:20 1010 29.83 839 24.78 0.1 32.1 94 -0.8 30.6
04:25 1010 29.83 839 24.78 0.2 32.4 92 -1 30.2
04:30 1010 29.83 839 24.78 0.4 32.6 91 -1 30.2
04:35 1010 29.83 839 24.78 0.5 32.9 90 -1 30.3
04:40 1010 29.83 839 24.78 0.5 33 90 -0.9 30.5
04:45 1010 29.83 839 24.78 0.5 33 90 -1 30.2
04:50 1010 29.83 839 24.78 0.6 33 89 -1 30.2
04:55 1010 29.83 839 24.78 0.6 33.1 89 -1 30.2
05:00 1010 29.83 839 24.78 0.5 33 90 -0.9 30.3
05:05 1010 29.83 839 24.78 0.5 32.9 90 -1 30.3
05:10 1010 29.83 839 24.78 0.5 32.9 90 -1 30.3
05:15 1010 29.83 839 24.78 0.5 33 89 -1 30.2
05:20 1010 29.83 839 24.78 0.6 33.1 88 -1.1 30
05:25 1010 29.83 839 24.78 0.6 33.1 88 -1.2 29.9
05:30 1010 29.83 839 24.78 0.6 33 88 -1.3 29.7
05:35 1010 29.83 839 24.78 0.6 33.1 87 -1.3 29.6
05:40 1010 29.83 839 24.78 0.7 33.2 86 -1.4 29.5
05:45 1010 29.83 839 24.78 0.7 33.3 86 -1.3 29.6
05:50 1010 29.83 839 24.78 0.8 33.4 86 -1.3 29.6
05:55 1010 29.83 839 24.78 0.7 33.3 86 -1.3 29.6
06:00 1010 29.83 839 24.78 0.7 33.2 87 -1.3 29.7
06:05 1010 29.83 839 24.78 0.5 32.9 88 -1.2 29.8
06:10 1010 29.83 839 24.78 0.5 32.9 88 -1.3 29.7
06:15 1010 29.83 839 24.78 0.6 33.2 87 -1.3 29.6
06:20 1010 29.83 839 24.78 0.8 33.4 87 -1.2 29.9
06:25 1010 29.83 839 24.78 0.6 33.1 86 -1.4 29.4
06:30 1010 29.83 839 24.78 0.8 33.4 84 -1.6 29.2
06:35 1010 29.83 839 24.78 0.9 33.6 84 -1.5 29.4
06:40 1010 29.83 839 24.78 0.9 33.6 86 -1.2 29.9
06:45 1010 29.83 839 24.78 0.7 33.2 86 -1.4 29.5
06:50 1010 29.83 839 24.78 0.6 33.1 88 -1.1 30
06:55 1010 29.83 839 24.78 0.5 32.8 89 -1.1 30
07:00 1010 29.83 839 24.78 0.5 32.8 89 -1.1 30
07:05 1010 29.83 839 24.78 0.3 32.5 90 -1.2 29.8
07:10 1010 29.83 839 24.78 0.2 32.4 88 -1.6 29.2
07:15 1010 29.83 839 24.78 0.3 32.6 86 -1.8 28.8
07:20 1010 29.83 839 24.78 0.5 32.9 80 -2.6 27.3
07:25 1010 29.83 839 24.78 0.5 33 76 -3.1 26.4
07:30 1010 29.83 839 24.78 0.5 33 76 -3.2 26.3
07:35 1010 29.83 839 24.78 0.5 33 77 -3.1 26.4
07:40 1010 29.83 839 24.78 0.5 32.8 77 -3.1 26.3
07:45 1010 29.83 839 24.78 0.4 32.8 77 -3.2 26.3
07:50 1010 29.83 839 24.78 0.4 32.7 77 -3.2 26.3
07:55 1010 29.83 839 24.78 0.4 32.8 77 -3.2 26.3
08:00 1010 29.83 839 24.78 0.4 32.7 78 -3.1 26.5
08:05 1010 29.83 839 24.78 0.4 32.8 78 -3 26.6
08:10 1010 29.83 839 24.78 0.4 32.8 73 -3.9 24.9
08:15 1010 29.83 839 24.78 0.6 33 73 -3.7 25.4
08:20 1010 29.83 839 24.78 0.6 33.1 73 -3.7 25.3
08:25 1010 29.83 839 24.78 0.5 32.9 70 -4.4 24.1
08:30 1010 29.83 839 24.78 0.4 32.7 68 -4.8 23.3
08:35 1010 29.83 839 24.78 0.4 32.7 69 -4.6 23.8
08:40 1010 29.83 839 24.78 0.3 32.6 71 -4.4 24
08:45 1010 29.83 839 24.78 0.2 32.4 71 -4.4 24
08:50 1010 29.83 839 24.78 0.3 32.6 70 -4.5 23.8
08:55 1010 29.83 839 24.78 0.4 32.7 71 -4.3 24.2
09:00 1010 29.83 840 24.81 0.5 32.9 71 -4.2 24.4
09:05 1010 29.83 840 24.81 0.7 33.2 66 -4.9 23.1
09:10 1010 29.83 840 24.81 0.8 33.4 69 -4.2 24.4
09:15 1010 29.83 840 24.81 0.8 33.4 67 -4.7 23.5
09:20 1010 29.83 840 24.81 0.7 33.3 68 -4.6 23.7
09:25 1010 29.83 840 24.81 1.1 34 68 -4.1 24.6
09:30 1010 29.83 840 24.81 1.3 34.3 66 -4.3 24.2
09:35 1010 29.83 840 24.81 1.4 34.4 67 -4.2 24.5
09:40 1010 29.83 840 24.81 1.4 34.6 67 -4.1 24.6
09:45 1011 29.85 840 24.81 1.6 34.9 65 -4.3 24.2
09:50 1011 29.85 840 24.81 2.2 36 60 -4.8 23.3
09:55 1011 29.85 840 24.81 2.8 37 59 -4.4 24.1
10:00 1010 29.83 840 24.81 3.3 37.9 58 -4.1 24.6
10:05 1010 29.83 840 24.81 3.3 37.9 59 -4 24.7
10:10 1010 29.83 840 24.81 3.3 38 56 -4.6 23.7
10:15 1011 29.85 840 24.81 3.7 38.6 56 -4.3 24.3
10:20 1011 29.85 840 24.81 4.3 39.7 56 -3.7 25.3
10:25 1011 29.85 840 24.81 4.6 40.2 56 -3.4 25.9
10:30 1011 29.85 840 24.81 4.9 40.8 56 -3.2 26.3
10:35 1011 29.85 840 24.81 4.9 40.9 56 -3.1 26.4
10:40 1011 29.85 840 24.81 5 40.9 55 -3.4 26
10:45 1011 29.85 840 24.81 4.7 40.5 54 -3.7 25.3
10:50 1011 29.85 840 24.81 4.4 40 53 -4.3 24.3
10:55 1011 29.85 840 24.81 4.2 39.6 55 -3.9 24.9
11:00 1011 29.85 840 24.81 5.1 41.2 52 -4 24.9
11:05 1011 29.85 840 24.81 5.6 42.1 49 -4.2 24.4
11:10 1011 29.85 840 24.81 5 40.9 54 -3.5 25.6
11:15 1011 29.85 840 24.81 4.9 40.8 53 -3.9 25
11:20 1011 29.85 840 24.81 5.4 41.7 54 -3 26.5
11:25 1011 29.85 840 24.81 3.8 38.8 60 -3.3 26.1
11:30 1011 29.85 840 24.81 4.2 39.6 55 -4 24.8
11:35 1011 29.85 840 24.81 4.3 39.7 56 -3.7 25.3
11:40 1011 29.85 840 24.81 5.3 41.6 52 -3.6 25.4
11:45 1011 29.85 840 24.81 6 42.8 53 -2.9 26.7
11:50 1011 29.85 840 24.81 6 42.9 53 -2.9 26.8
11:55 1011 29.85 840 24.81 5.1 41.2 53 -3.7 25.3
12:00 1011 29.85 840 24.81 4.8 40.6 56 -3.2 26.2
12:05 1011 29.85 840 24.81 5.2 41.4 53 -3.6 25.5
12:10 1011 29.85 840 24.81 6.3 43.4 48 -3.9 25
12:15 1011 29.85 840 24.81 6.5 43.7 50 -3.1 26.4
12:20 1011 29.85 840 24.81 6.3 43.3 50 -3.3 26.1
12:25 1011 29.85 840 24.81 6.1 43 52 -3 26.6
12:30 1011 29.85 840 24.81 6.3 43.3 47 -4.2 24.5
12:35 1011 29.85 840 24.81 6.2 43.1 46 -4.6 23.8
12:40 1011 29.85 840 24.81 5.8 42.5 46 -4.8 23.4
12:45 1011 29.85 840 24.81 5.4 41.8 48 -4.8 23.4
12:50 1011 29.85 840 24.81 5.4 41.6 49 -4.5 23.9
12:55 1011 29.85 840 24.81 5.3 41.5 52 -3.7 25.3
13:00 1011 29.85 840 24.81 5 41 51 -4.4 24.1
13:05 1011 29.85 840 24.81 5 41 51 -4.4 24.2
13:10 1011 29.85 840 24.81 4.7 40.4 41 -7.3 18.8
13:15 1010 29.83 840 24.81 5.9 42.7 38 -7.3 18.9
13:20 1010 29.83 840 24.81 6.5 43.7 35 -8 17.6
13:25 1010 29.83 840 24.81 6.2 43.2 35 -8.1 17.4
13:30 1010 29.83 840 24.81 6.4 43.5 37 -7.2 19
13:35 1010 29.83 840 24.81 6.8 44.3 34 -7.9 17.9
13:40 1011 29.85 840 24.81 6.4 43.5 38 -7 19.5
13:45 1011 29.85 840 24.81 6.1 42.9 39 -7 19.5
13:50 1011 29.85 840 24.81 6.1 43 40 -6.6 20.1
13:55 1011 29.85 840 24.81 5.9 42.6 38 -7.4 18.8
14:00 1011 29.85 840 24.81 5.9 42.7 36 -7.9 17.8
14:05 1011 29.85 840 24.81 5.9 42.7 36 -8 17.6
14:10 1010 29.83 840 24.81 6.2 43.1 36 -7.9 17.8
14:15 1010 29.83 840 24.81 6.9 44.4 33 -8.5 16.8
14:20 1010 29.83 840 24.81 6.9 44.5 33 -8.3 17.1
14:25 1010 29.83 840 24.81 7.3 45.1 33 -7.8 18
14:30 1011 29.85 840 24.81 6.4 43.5 38 -6.8 19.7
14:35 1011 29.85 840 24.81 6.1 43 39 -7 19.4
14:40 1011 29.85 840 24.81 6.1 42.9 38 -7.1 19.1
14:45 1011 29.85 840 24.81 6.7 44 37 -7 19.4
14:50 1011 29.85 840 24.81 7.1 44.7 34 -7.8 17.9
14:55 1011 29.85 840 24.81 6.5 43.8 36 -7.4 18.7
15:00 1011 29.85 840 24.81 6.2 43.2 36 -7.6 18.3
15:05 1011 29.85 840 24.81 6 42.8 37 -7.5 18.4
15:10 1011 29.85 840 24.81 5.8 42.5 41 -6.4 20.5
15:15 1011 29.85 840 24.81 5.6 42.1 44 -5.7 21.7
15:20 1011 29.85 840 24.81 5.8 42.4 41 -6.6 20.2
15:25 1011 29.85 840 24.81 6 42.7 38 -7.4 18.8
15:30 1011 29.85 840 24.81 6.3 43.4 37 -7.2 19
15:35 1011 29.85 840 24.81 6.7 44.1 37 -7.1 19.2
15:40 1011 29.85 840 24.81 7.1 44.8 36 -6.9 19.6
15:45 1011 29.85 840 24.81 6.8 44.3 35 -7.5 18.4
15:50 1011 29.85 840 24.81 6.9 44.5 35 -7.5 18.4
15:55 1011 29.85 840 24.81 7.3 45.2 34 -7.4 18.7
16:00 1011 29.85 840 24.81 7.6 45.7 36 -6.5 20.3
16:05 1011 29.85 840 24.81 7.3 45.2 37 -6.4 20.6
16:10 1011 29.85 840 24.81 6.7 44.1 45 -4.4 24
16:15 1011 29.85 841 24.83 5.7 42.3 50 -3.9 24.9
16:20 1012 29.88 841 24.83 5.3 41.5 51 -4.1 24.5
16:25 1012 29.88 841 24.83 5 41 48 -5.1 22.8
16:30 1012 29.88 841 24.83 4.9 40.8 47 -5.4 22.2
16:35 1012 29.88 841 24.83 5.2 41.3 48 -5 23.1
16:40 1012 29.88 841 24.83 5.3 41.6 45 -5.7 21.8
16:45 1012 29.88 841 24.83 5.4 41.8 46 -5.3 22.4
16:50 1012 29.88 841 24.83 6 42.9 45 -5 23
16:55 1012 29.88 841 24.83 6.3 43.4 43 -5.2 22.6
17:00 1012 29.88 841 24.83 6.4 43.5 43 -5.3 22.5
17:05 1012 29.88 841 24.83 6.3 43.4 40 -6.2 20.8
17:10 1012 29.88 841 24.83 5.8 42.5 44 -5.3 22.4
17:15 1012 29.88 841 24.83 5.6 42.1 46 -5.2 22.6
17:20 1012 29.88 841 24.83 5.8 42.4 45 -5.3 22.4
17:25 1012 29.88 841 24.83 6.5 43.7 42 -5.5 22
17:30 1012 29.88 841 24.83 7 44.6 35 -7.3 18.8
17:35 1012 29.88 842 24.86 6.9 44.4 31 -9 15.8
17:40 1012 29.88 842 24.86 6.6 44 33 -8.4 16.8
17:45 1013 29.91 842 24.86 6.6 43.8 35 -7.9 17.8
17:50 1013 29.91 842 24.86 6.1 42.9 38 -7.3 18.9
17:55 1013 29.91 842 24.86 6.2 43.1 38 -7 19.5
18:00 1013 29.91 842 24.86 6.5 43.8 41 -5.8 21.5
18:05 1013 29.91 842 24.86 6.1 42.9 40 -6.6 20.1
18:10 1013 29.91 842 24.86 5.9 42.5 36 -8.2 17.3
18:15 1013 29.91 842 24.86 6 42.9 34 -8.7 16.4
18:20 1013 29.91 842 24.86 6.1 43 38 -7.1 19.2
18:25 1013 29.91 842 24.86 6.1 42.9 36 -7.9 17.7
18:30 1013 29.91 842 24.86 5.8 42.5 38 -7.6 18.4
18:35 1013 29.91 842 24.86 5.5 41.9 38 -7.7 18.2
18:40 1013 29.91 842 24.86 5.4 41.7 40 -7.3 18.9
18:45 1013 29.91 843 24.89 5.5 41.9 40 -7.1 19.3
18:50 1014 29.94 843 24.89 4.9 40.8 55 -3.4 25.9
18:55 1014 29.94 843 24.89 2.8 37.1 67 -2.7 27.1
19:00 1014 29.94 843 24.89 2.1 35.8 71 -2.5 27.5
19:05 1014 29.94 844 24.92 1.9 35.5 72 -2.6 27.3
19:10 1014 29.94 844 24.92 2.2 35.9 63 -4.2 24.5
19:15 1014 29.94 844 24.92 2.9 37.1 58 -4.5 23.9
19:20 1014 29.94 844 24.92 3.1 37.6 55 -5 23
19:25 1014 29.94 844 24.92 3.5 38.3 49 -6.3 20.7
19:30 1014 29.94 844 24.92 4 39.1 44 -7.1 19.1
19:35 1014 29.94 844 24.92 4.3 39.7 44 -6.9 19.6
19:40 1015 29.97 844 24.92 4.3 39.8 44 -6.9 19.5
19:45 1015 29.97 844 24.92 4.3 39.7 44 -6.9 19.5
19:50 1015 29.97 844 24.92 4.2 39.5 44 -7.2 19.1
19:55 1015 29.97 844 24.92 4 39.2 43 -7.5 18.4
20:00 1015 29.97 844 24.92 3.9 39 43 -7.5 18.4
20:05 1015 29.97 844 24.92 3.8 38.8 43 -7.7 18.2
20:10 1015 29.97 844 24.92 3.7 38.7 43 -7.7 18.1
20:15 1015 29.97 844 24.92 3.7 38.7 44 -7.5 18.5
20:20 1015 29.97 845 24.95 3.7 38.6 45 -7.1 19.3
20:25 1016 30 845 24.95 3.6 38.4 46 -7.1 19.3
20:30 1016 30 845 24.95 3.5 38.3 47 -6.8 19.7
20:35 1016 30 845 24.95 3.4 38.2 49 -6.4 20.5
20:40 1016 30 845 24.95 3.2 37.8 49 -6.4 20.6
20:45 1016 30 845 24.95 3.2 37.7 49 -6.5 20.3
20:50 1016 30 845 24.95 3.1 37.5 50 -6.3 20.6
20:55 1016 30 845 24.95 3.1 37.6 50 -6.3 20.6
21:00 1016 30 846 24.98 3 37.4 50 -6.4 20.5
21:05 1017 30.03 846 24.98 3 37.4 51 -6.3 20.7
21:10 1017 30.03 846 24.98 3 37.4 51 -6.2 20.8
21:15 1017 30.03 846 24.98 2.9 37.3 51 -6.2 20.9
21:20 1017 30.03 846 24.98 2.9 37.1 52 -6.1 21
21:25 1017 30.03 846 24.98 2.9 37.1 52 -6.1 21
21:30 1017 30.03 846 24.98 2.8 37.1 53 -5.9 21.4
21:35 1017 30.03 847 25.01 2.7 36.9 54 -5.7 21.7
21:40 1017 30.03 847 25.01 2.6 36.6 54 -5.8 21.5
21:45 1018 30.06 847 25.01 2.5 36.5 54 -5.9 21.3
21:50 1018 30.06 847 25.01 2.5 36.5 54 -5.8 21.5
21:55 1018 30.06 847 25.01 2.5 36.5 54 -5.9 21.4
22:00 1018 30.06 847 25.01 2.4 36.4 54 -5.8 21.5
22:05 1018 30.06 847 25.01 2.4 36.3 55 -5.8 21.6
22:10 1018 30.06 847 25.01 2.5 36.5 53 -6.1 21
22:15 1018 30.06 847 25.01 2.6 36.6 52 -6.2 20.8
22:20 1018 30.06 847 25.01 2.5 36.6 53 -6.1 20.9
22:25 1018 30.06 847 25.01 2.5 36.4 53 -6.1 21
22:30 1018 30.06 847 25.01 2.4 36.3 54 -6.1 21
22:35 1018 30.06 847 25.01 2.3 36.2 54 -6 21.2
22:40 1018 30.06 847 25.01 2.3 36.2 54 -6 21.1
22:45 1018 30.06 848 25.04 2.3 36.2 54 -6.1 21
22:50 1018 30.06 848 25.04 2.3 36.2 54 -6 21.1
22:55 1018 30.06 848 25.04 2.3 36.2 54 -6.1 21
23:00 1019 30.09 848 25.04 2.3 36.1 54 -6 21.2
23:05 1019 30.09 848 25.04 2.2 36 54 -6.1 21
23:10 1019 30.09 848 25.04 2.2 36 54 -6.1 21.1
23:15 1019 30.09 848 25.04 2.2 35.9 55 -5.9 21.5
23:20 1019 30.09 848 25.04 2.1 35.7 56 -5.8 21.6
23:25 1019 30.09 848 25.04 2 35.6 56 -5.8 21.5
23:30 1019 30.09 848 25.04 2 35.6 56 -5.8 21.6
23:35 1019 30.09 848 25.04 2 35.6 55 -6 21.2
23:40 1019 30.09 848 25.04 2 35.6 56 -5.9 21.3
23:45 1019 30.09 848 25.04 2 35.6 56 -5.9 21.4
23:50 1019 30.09 849 25.07 2 35.6 56 -6 21.3
23:55 1019 30.09 849 25.07 1.9 35.5 56 -6 21.1